Time;durP1;ratioP1;P1;durP2;ratioP2;P2;SDS_P1;SDS_P2;PMS_P1;PMS_P2;Temp;Humidity;BMP_temperature;BMP_pressure;BME280_temperature;BME280_humidity;BME280_pressure;Samples;Min_cycle;Max_cycle;Signal;HPM_P1;HPM_P2
2022/01/25 00:15:02;;;;;;;;;;;;;;;;;;5100833;27;20411;-85
2022/01/25 00:32:17;;;;;;;51.33;16.45;;;;;;;;;;5082304;28;20048;-85
2022/01/25 00:34:45;;;;;;;47.05;16.65;;;;;;;;;;5062856;28;20043;-85
2022/01/25 00:37:13;;;;;;;46.65;16.55;;;;;;;;;;5043414;28;20048;-85
2022/01/25 00:39:41;;;;;;;48.80;15.38;;;;;;;;;;5079107;28;20032;-85
2022/01/25 00:42:10;;;;;;;45.65;15.40;;;;;;;;;;5057564;28;20393;-85
2022/01/25 00:44:40;;;;;;;50.20;17.20;;;;;;;;;;5065916;28;20058;-85
2022/01/25 00:47:09;;;;;;;51.63;17.15;;;;;;;;;;5089506;28;20122;-85
2022/01/25 00:49:39;;;;;;;52.47;17.83;;;;;;;;;;5045960;28;20496;-85
2022/01/25 00:53:52;;;;;;;54.17;17.42;;;;;;;;;;5078061;28;20582;-85
2022/01/25 00:55:07;;;;;;;52.20;18.17;;;;;;;;;;5089262;28;20063;-85
2022/01/25 00:57:35;;;;;;;55.38;17.40;;;;;;;;;;5062913;28;20127;-85
2022/01/25 01:00:06;;;;;;;48.78;16.92;;;;;;;;;;5062170;28;20048;-85
2022/01/25 01:02:47;;;;;;;50.53;17.92;;;;;;;;;;5047827;28;20114;-85
2022/01/25 01:05:17;;;;;;;50.05;16.92;;;;;;;;;;5061571;28;20135;-85
2022/01/25 01:07:45;;;;;;;56.30;18.33;;;;;;;;;;5077866;28;20037;-85
2022/01/25 01:10:16;;;;;;;54.88;18.20;;;;;;;;;;5073934;28;20386;-85
2022/01/25 01:13:18;;;;;;;55.70;17.80;;;;;;;;;;5068713;28;20123;-85
2022/01/25 01:29:53;;;;;;;61.33;19.42;;;;;;;;;;4988868;28;20037;-85
2022/01/25 01:45:25;;;;;;;61.17;18.65;;;;;;;;;;4974859;28;20061;-85
2022/01/25 01:48:00;;;;;;;61.88;19.25;;;;;;;;;;4985829;28;20045;-85
2022/01/25 01:50:30;;;;;;;65.55;19.98;;;;;;;;;;4978898;28;20049;-85
2022/01/25 01:52:57;;;;;;;63.65;20.00;;;;;;;;;;4973528;28;20061;-85
2022/01/25 01:55:26;;;;;;;58.28;18.25;;;;;;;;;;4973626;28;20058;-85
2022/01/25 01:57:56;;;;;;;64.93;20.10;;;;;;;;;;5021474;28;20056;-85
2022/01/25 02:00:30;;;;;;;59.88;18.13;;;;;;;;;;5047304;28;20566;-85
2022/01/25 02:03:00;;;;;;;64.80;19.80;;;;;;;;;;5035366;28;20051;-85
2022/01/25 02:05:29;;;;;;;61.47;19.33;;;;;;;;;;5033712;28;20045;-85
2022/01/25 02:07:57;;;;;;;62.65;19.67;;;;;;;;;;5047519;28;20560;-85
2022/01/25 02:10:25;;;;;;;62.03;20.15;;;;;;;;;;5032727;28;20043;-85
2022/01/25 02:12:54;;;;;;;65.78;20.42;;;;;;;;;;5048179;28;20052;-85
2022/01/25 02:15:27;;;;;;;66.68;19.08;;;;;;;;;;5054324;28;20051;-85
2022/01/25 02:23:27;;;;;;;62.13;18.75;;;;;;;;;;5048900;28;20083;-85
2022/01/25 02:25:58;;;;;;;70.47;20.90;;;;;;;;;;5052385;28;20105;-85
2022/01/25 02:28:31;;;;;;;70.55;21.58;;;;;;;;;;5052308;28;20051;-85
2022/01/25 02:31:00;;;;;;;62.35;19.02;;;;;;;;;;5067549;28;20072;-85
2022/01/25 02:33:28;;;;;;;70.70;20.35;;;;;;;;;;5047036;28;20056;-85
2022/01/25 02:35:57;;;;;;;64.00;20.27;;;;;;;;;;5064959;28;20637;-85
2022/01/25 02:38:27;;;;;;;64.28;20.27;;;;;;;;;;5063955;28;20036;-85
2022/01/25 02:40:57;;;;;;;71.32;20.17;;;;;;;;;;5061502;28;20072;-85
2022/01/25 02:43:26;;;;;;;69.57;20.50;;;;;;;;;;5064035;28;20074;-85
2022/01/25 02:48:59;;;;;;;72.75;20.75;;;;;;;;;;5045949;28;20032;-85
2022/01/25 02:51:39;;;;;;;65.60;19.85;;;;;;;;;;5048826;28;20040;-85
2022/01/25 02:54:11;;;;;;;71.63;21.95;;;;;;;;;;5045668;28;20098;-85
2022/01/25 02:56:42;;;;;;;65.75;21.50;;;;;;;;;;5062196;28;20040;-85
2022/01/25 02:59:12;;;;;;;66.30;21.13;;;;;;;;;;5040812;28;20041;-85
2022/01/25 03:01:44;;;;;;;68.78;21.13;;;;;;;;;;5066254;28;20043;-85
2022/01/25 03:04:15;;;;;;;82.57;24.13;;;;;;;;;;5028410;28;20052;-85
2022/01/25 03:06:43;;;;;;;66.38;19.60;;;;;;;;;;5045528;28;20124;-85
2022/01/25 03:09:11;;;;;;;75.40;21.15;;;;;;;;;;5061400;28;20113;-85
2022/01/25 03:11:39;;;;;;;71.85;22.20;;;;;;;;;;5031629;28;20047;-85
2022/01/25 03:14:11;;;;;;;73.85;21.75;;;;;;;;;;5052276;28;20143;-85
2022/01/25 03:16:44;;;;;;;69.45;20.73;;;;;;;;;;5046938;28;20094;-85
2022/01/25 03:24:55;;;;;;;71.30;20.70;;;;;;;;;;5046374;28;20036;-85
2022/01/25 03:27:23;;;;;;;72.50;22.42;;;;;;;;;;5064275;28;20180;-85
2022/01/25 03:29:51;;;;;;;66.65;20.15;;;;;;;;;;5058348;28;20036;-85
2022/01/25 03:32:20;;;;;;;68.05;21.58;;;;;;;;;;5045771;28;20112;-85
2022/01/25 03:34:49;;;;;;;75.50;21.75;;;;;;;;;;5029089;28;20673;-85
2022/01/25 03:37:17;;;;;;;76.18;20.45;;;;;;;;;;5044746;28;20063;-85
2022/01/25 03:39:45;;;;;;;75.97;20.83;;;;;;;;;;5056989;28;20041;-85
2022/01/25 03:42:15;;;;;;;79.18;20.70;;;;;;;;;;5048816;28;20043;-85
2022/01/25 03:44:45;;;;;;;62.15;21.23;;;;;;;;;;5051282;28;20090;-85
2022/01/25 03:47:17;;;;;;;77.07;20.90;;;;;;;;;;5061280;28;20041;-85
2022/01/25 03:49:50;;;;;;;78.78;22.25;;;;;;;;;;5021866;28;20394;-85
2022/01/25 03:52:27;;;;;;;73.00;21.58;;;;;;;;;;5031714;28;20826;-85
2022/01/25 03:54:59;;;;;;;77.65;21.92;;;;;;;;;;5048684;28;20134;-85
2022/01/25 03:57:27;;;;;;;70.05;20.15;;;;;;;;;;5062381;28;20036;-85
2022/01/25 03:59:58;;;;;;;75.97;21.83;;;;;;;;;;5043628;28;20947;-85
2022/01/25 04:02:33;;;;;;;78.05;22.77;;;;;;;;;;5063151;28;20079;-85
2022/01/25 04:05:05;;;;;;;74.13;21.45;;;;;;;;;;5040490;28;20048;-85
2022/01/25 04:07:44;;;;;;;71.70;21.52;;;;;;;;;;5066169;28;20040;-85
2022/01/25 04:10:13;;;;;;;68.88;19.85;;;;;;;;;;5029256;28;20138;-85
2022/01/25 04:12:42;;;;;;;67.22;21.40;;;;;;;;;;5054820;28;20131;-85
2022/01/25 04:15:11;;;;;;;70.60;20.13;;;;;;;;;;5032663;28;20053;-85
2022/01/25 04:17:41;;;;;;;71.40;21.65;;;;;;;;;;5064441;28;20050;-85
2022/01/25 04:25:27;;;;;;;74.85;20.73;;;;;;;;;;5059094;28;20067;-85
2022/01/25 04:27:55;;;;;;;78.68;22.13;;;;;;;;;;5034817;28;20148;-85
2022/01/25 04:30:23;;;;;;;75.68;21.38;;;;;;;;;;5046628;28;20036;-85
2022/01/25 04:33:18;;;;;;;76.22;22.13;;;;;;;;;;5030873;28;20049;-85
2022/01/25 04:49:50;;;;;;;68.15;20.63;;;;;;;;;;4986111;28;20495;-85
2022/01/25 04:52:21;;;;;;;77.10;22.02;;;;;;;;;;4988623;28;20613;-85
2022/01/25 04:55:03;;;;;;;78.75;21.48;;;;;;;;;;4968166;28;20073;-85
2022/01/25 05:00:06;;;;;;;75.20;21.42;;;;;;;;;;4971763;28;20054;-85
2022/01/25 05:02:54;;;;;;;75.15;22.30;;;;;;;;;;4987801;28;20993;-85
2022/01/25 05:05:32;;;;;;;72.43;21.83;;;;;;;;;;5000537;28;20487;-85
2022/01/25 05:08:17;;;;;;;69.15;21.38;;;;;;;;;;4980762;28;20586;-85
2022/01/25 05:10:53;;;;;;;76.97;21.55;;;;;;;;;;4986482;28;20546;-86
2022/01/25 05:13:43;;;;;;;67.45;21.13;;;;;;;;;;5007597;28;20041;-85
2022/01/25 05:17:18;;;;;;;79.00;22.48;;;;;;;;;;5011160;28;20044;-85
2022/01/25 05:24:41;;;;;;;71.25;20.60;;;;;;;;;;5045594;28;20091;-85
2022/01/25 05:27:11;;;;;;;66.70;20.42;;;;;;;;;;5058430;28;20102;-85
2022/01/25 05:29:39;;;;;;;77.97;21.48;;;;;;;;;;5060531;28;20036;-85
2022/01/25 05:32:07;;;;;;;80.75;22.40;;;;;;;;;;5051290;28;20037;-85
2022/01/25 05:34:39;;;;;;;77.80;22.58;;;;;;;;;;5049915;28;20113;-85
2022/01/25 05:37:07;;;;;;;79.13;23.08;;;;;;;;;;5061904;28;20879;-85
2022/01/25 05:39:37;;;;;;;71.03;20.85;;;;;;;;;;5062845;28;20064;-85
2022/01/25 05:42:20;;;;;;;70.65;21.38;;;;;;;;;;5050088;28;20051;-85
2022/01/25 05:45:12;;;;;;;71.15;21.60;;;;;;;;;;5048078;28;20097;-85
2022/01/25 05:47:40;;;;;;;78.97;22.10;;;;;;;;;;5049554;28;20497;-85
2022/01/25 05:50:09;;;;;;;74.28;22.23;;;;;;;;;;5048811;28;20059;-85
2022/01/25 05:52:39;;;;;;;75.90;21.73;;;;;;;;;;5054064;28;20554;-85
2022/01/25 05:55:10;;;;;;;67.65;18.85;;;;;;;;;;5032182;28;20040;-85
2022/01/25 05:57:37;;;;;;;75.35;21.13;;;;;;;;;;5047189;28;20044;-85
2022/01/25 06:00:07;;;;;;;76.05;23.27;;;;;;;;;;5066730;28;20036;-85
2022/01/25 06:02:36;;;;;;;72.72;22.38;;;;;;;;;;5061922;28;20047;-85
2022/01/25 06:05:19;;;;;;;78.35;22.05;;;;;;;;;;5049571;28;20075;-85
2022/01/25 06:07:47;;;;;;;70.68;21.58;;;;;;;;;;5066440;28;20098;-85
2022/01/25 06:10:16;;;;;;;82.75;21.77;;;;;;;;;;5046448;28;20454;-85
2022/01/25 06:12:47;;;;;;;72.05;20.88;;;;;;;;;;5064067;28;20040;-85
2022/01/25 06:15:20;;;;;;;73.15;21.77;;;;;;;;;;5064221;28;20501;-85
2022/01/25 06:17:49;;;;;;;69.70;21.55;;;;;;;;;;5062264;28;20058;-85
2022/01/25 06:20:17;;;;;;;74.47;21.08;;;;;;;;;;5032755;28;20040;-85
2022/01/25 06:22:47;;;;;;;79.43;22.23;;;;;;;;;;5055633;28;20052;-85
2022/01/25 06:25:19;;;;;;;68.20;20.40;;;;;;;;;;5032979;28;20045;-85
2022/01/25 06:27:47;;;;;;;71.65;24.25;;;;;;;;;;5063745;28;20044;-85
2022/01/25 06:30:18;;;;;;;70.75;22.20;;;;;;;;;;5033241;28;20413;-85
2022/01/25 06:32:59;;;;;;;70.45;21.55;;;;;;;;;;5068997;28;20056;-85
2022/01/25 06:35:29;;;;;;;66.45;21.52;;;;;;;;;;5045775;28;20094;-86
2022/01/25 06:37:57;;;;;;;73.45;21.30;;;;;;;;;;5049681;28;20033;-86
2022/01/25 06:40:25;;;;;;;69.03;20.90;;;;;;;;;;5045933;28;20036;-86
2022/01/25 06:42:58;;;;;;;71.18;23.23;;;;;;;;;;5049935;28;20051;-85
2022/01/25 06:45:27;;;;;;;72.25;21.02;;;;;;;;;;5053399;28;20036;-85
2022/01/25 06:47:55;;;;;;;73.40;22.15;;;;;;;;;;5043983;28;20652;-85
2022/01/25 06:50:23;;;;;;;71.30;21.65;;;;;;;;;;5030278;28;20076;-86
2022/01/25 06:52:52;;;;;;;69.72;20.85;;;;;;;;;;5028882;28;20162;-84
2022/01/25 06:55:37;;;;;;;72.47;22.10;;;;;;;;;;5049626;28;20488;-84
2022/01/25 06:58:05;;;;;;;71.70;20.88;;;;;;;;;;5049043;28;20040;-84
2022/01/25 07:00:33;;;;;;;73.18;21.63;;;;;;;;;;5043967;28;20110;-84
2022/01/25 07:03:01;;;;;;;70.80;22.80;;;;;;;;;;5048285;28;20400;-84
2022/01/25 07:05:30;;;;;;;79.65;20.33;;;;;;;;;;5077386;28;20052;-84
2022/01/25 07:07:59;;;;;;;78.35;21.77;;;;;;;;;;5069185;28;20053;-84
2022/01/25 07:10:27;;;;;;;75.72;21.70;;;;;;;;;;5084409;28;20055;-84
2022/01/25 07:12:55;;;;;;;70.97;21.92;;;;;;;;;;5043900;28;20049;-84
2022/01/25 07:15:23;;;;;;;69.05;20.58;;;;;;;;;;5042758;28;20451;-84
2022/01/25 07:17:51;;;;;;;63.75;20.27;;;;;;;;;;5060704;28;20121;-84
2022/01/25 07:20:20;;;;;;;70.57;21.95;;;;;;;;;;5061257;28;20059;-84
2022/01/25 07:22:47;;;;;;;67.53;19.38;;;;;;;;;;5046856;28;20052;-84
2022/01/25 07:25:15;;;;;;;78.30;22.35;;;;;;;;;;5046974;28;20044;-84
2022/01/25 07:27:43;;;;;;;70.25;20.30;;;;;;;;;;5027529;28;20047;-84
2022/01/25 07:30:11;;;;;;;72.07;21.13;;;;;;;;;;5065589;28;20037;-84
2022/01/25 07:32:39;;;;;;;66.20;20.75;;;;;;;;;;5026558;28;20139;-84
2022/01/25 07:35:09;;;;;;;70.00;22.48;;;;;;;;;;5047395;28;20048;-84
2022/01/25 07:37:43;;;;;;;77.93;20.70;;;;;;;;;;5063385;28;20032;-84
2022/01/25 07:40:16;;;;;;;69.15;20.58;;;;;;;;;;5040216;28;20045;-84
2022/01/25 07:42:57;;;;;;;67.25;19.83;;;;;;;;;;5035363;28;20054;-84
2022/01/25 07:46:04;;;;;;;67.38;19.73;;;;;;;;;;5031263;28;20056;-84
2022/01/25 07:48:33;;;;;;;67.72;20.05;;;;;;;;;;4991024;28;20493;-84
2022/01/25 07:51:03;;;;;;;67.50;19.38;;;;;;;;;;5023256;28;20053;-84
2022/01/25 07:53:31;;;;;;;75.90;20.80;;;;;;;;;;4995205;28;20045;-84
2022/01/25 07:55:59;;;;;;;70.90;20.58;;;;;;;;;;5007353;28;20052;-84
2022/01/25 07:58:27;;;;;;;77.85;22.92;;;;;;;;;;5009459;28;20049;-84
2022/01/25 08:00:55;;;;;;;66.93;20.85;;;;;;;;;;5027037;28;20703;-84
2022/01/25 08:03:23;;;;;;;64.40;21.52;;;;;;;;;;5021910;28;20049;-84
2022/01/25 08:06:05;;;;;;;78.55;20.17;;;;;;;;;;5004441;28;20052;-84
2022/01/25 08:08:37;;;;;;;73.15;20.55;;;;;;;;;;5006128;28;20051;-84
2022/01/25 08:11:07;;;;;;;79.03;22.58;;;;;;;;;;4987312;28;20045;-84
2022/01/25 08:13:47;;;;;;;77.65;21.50;;;;;;;;;;5015181;28;20505;-84
2022/01/25 08:16:16;;;;;;;79.72;20.20;;;;;;;;;;5017158;28;20075;-84
2022/01/25 08:18:54;;;;;;;64.45;20.30;;;;;;;;;;5065484;28;20055;-85
2022/01/25 08:21:40;;;;;;;68.47;19.77;;;;;;;;;;5025654;28;20079;-85
2022/01/25 08:24:10;;;;;;;63.58;21.38;;;;;;;;;;5053790;28;20044;-85
2022/01/25 08:26:42;;;;;;;70.95;20.45;;;;;;;;;;5073176;28;20413;-85
2022/01/25 08:29:19;;;;;;;72.25;20.25;;;;;;;;;;5075776;28;20501;-85
2022/01/25 08:31:49;;;;;;;73.30;20.80;;;;;;;;;;5053040;28;20532;-84
2022/01/25 08:34:17;;;;;;;69.18;20.38;;;;;;;;;;5082990;28;20019;-84
2022/01/25 08:36:47;;;;;;;69.70;20.42;;;;;;;;;;5098024;28;20048;-85
2022/01/25 08:39:19;;;;;;;73.50;19.90;;;;;;;;;;5062103;28;20032;-85
2022/01/25 08:41:53;;;;;;;67.00;19.48;;;;;;;;;;5082929;28;20064;-85
2022/01/25 08:44:23;;;;;;;74.30;21.10;;;;;;;;;;5069374;28;20039;-85
2022/01/25 08:46:55;;;;;;;75.95;21.50;;;;;;;;;;5042399;28;20053;-85
2022/01/25 08:49:25;;;;;;;72.47;20.67;;;;;;;;;;5067426;28;20374;-85
2022/01/25 08:52:03;;;;;;;76.85;21.27;;;;;;;;;;5051322;28;20047;-84
2022/01/25 08:54:47;;;;;;;73.35;20.85;;;;;;;;;;4982669;28;20408;-85
2022/01/25 08:57:23;;;;;;;72.07;19.48;;;;;;;;;;4974698;28;20046;-85
2022/01/25 09:00:07;;;;;;;74.82;21.05;;;;;;;;;;4988470;28;20065;-85
2022/01/25 09:02:37;;;;;;;69.18;19.98;;;;;;;;;;4965357;28;20046;-85
2022/01/25 09:05:05;;;;;;;64.97;20.30;;;;;;;;;;4990200;28;20140;-84
2022/01/25 09:07:33;;;;;;;72.70;19.45;;;;;;;;;;4970515;28;20512;-85
2022/01/25 09:10:01;;;;;;;71.20;19.42;;;;;;;;;;4976142;28;20051;-85
2022/01/25 09:12:29;;;;;;;71.47;20.73;;;;;;;;;;4976757;28;20058;-84
2022/01/25 09:14:57;;;;;;;70.25;20.77;;;;;;;;;;4990883;28;20049;-84
2022/01/25 09:17:25;;;;;;;74.18;20.13;;;;;;;;;;4985671;28;20184;-85
2022/01/25 09:19:53;;;;;;;67.70;19.48;;;;;;;;;;4987307;28;20550;-85
2022/01/25 09:22:25;;;;;;;65.43;18.75;;;;;;;;;;4990607;28;20529;-84
2022/01/25 09:25:13;;;;;;;73.43;20.00;;;;;;;;;;4962487;28;20049;-84
2022/01/25 09:27:47;;;;;;;72.47;19.35;;;;;;;;;;4972862;28;20164;-85
2022/01/25 09:30:17;;;;;;;68.40;19.08;;;;;;;;;;4974805;28;20487;-85
2022/01/25 09:32:46;;;;;;;64.57;16.98;;;;;;;;;;5035232;28;20063;-85
2022/01/25 09:35:15;;;;;;;58.05;17.48;;;;;;;;;;5034552;28;20102;-84
2022/01/25 09:37:43;;;;;;;63.20;18.40;;;;;;;;;;5045444;28;20072;-84
2022/01/25 09:40:12;;;;;;;65.32;18.52;;;;;;;;;;5064153;28;20052;-84
2022/01/25 09:42:39;;;;;;;59.72;17.70;;;;;;;;;;5049586;28;20066;-84
2022/01/25 09:45:07;;;;;;;63.63;18.05;;;;;;;;;;5059597;28;20024;-84
2022/01/25 09:47:37;;;;;;;68.03;17.67;;;;;;;;;;5055001;28;20107;-84
2022/01/25 09:50:11;;;;;;;74.38;19.67;;;;;;;;;;5059439;28;20053;-85
2022/01/25 09:52:42;;;;;;;63.47;19.48;;;;;;;;;;5063772;28;20059;-84
2022/01/25 09:55:18;;;;;;;75.72;21.67;;;;;;;;;;5071996;28;20048;-85
2022/01/25 09:57:45;;;;;;;69.00;20.10;;;;;;;;;;5035328;28;20052;-85
2022/01/25 10:08:26;;;;;;;69.00;17.95;;;;;;;;;;5043884;28;20480;-81
2022/01/25 10:11:00;;;;;;;58.08;16.02;;;;;;;;;;5048023;28;20096;-81
2022/01/25 10:13:36;;;;;;;60.78;18.13;;;;;;;;;;5050437;28;20040;-81
2022/01/25 10:16:10;;;;;;;61.05;18.60;;;;;;;;;;5049985;28;20066;-81
2022/01/25 10:18:43;;;;;;;56.53;17.92;;;;;;;;;;5034083;28;20064;-81
2022/01/25 10:21:31;;;;;;;66.97;19.23;;;;;;;;;;5034773;28;20106;-81
2022/01/25 10:24:14;;;;;;;66.45;17.13;;;;;;;;;;5056087;28;20055;-81
2022/01/25 10:26:49;;;;;;;59.13;16.58;;;;;;;;;;5052365;28;20050;-81
2022/01/25 10:29:20;;;;;;;52.92;16.20;;;;;;;;;;5033390;28;20037;-81
2022/01/25 10:31:53;;;;;;;56.17;17.17;;;;;;;;;;5050099;28;22183;-81
2022/01/25 10:34:27;;;;;;;60.88;18.15;;;;;;;;;;5047196;28;20075;-79
2022/01/25 10:36:57;;;;;;;54.38;16.45;;;;;;;;;;5046180;28;20068;-80
2022/01/25 10:39:33;;;;;;;65.65;17.20;;;;;;;;;;5048635;28;20044;-80
2022/01/25 10:42:07;;;;;;;61.58;17.88;;;;;;;;;;5049312;28;20551;-80
2022/01/25 10:44:56;;;;;;;65.15;17.88;;;;;;;;;;5033357;28;20049;-81
2022/01/25 10:47:49;;;;;;;56.47;16.65;;;;;;;;;;5047375;28;20567;-80
2022/01/25 10:50:34;;;;;;;52.85;16.58;;;;;;;;;;5050745;28;20055;-80
2022/01/25 10:53:03;;;;;;;62.10;17.65;;;;;;;;;;5053252;28;20037;-80
2022/01/25 10:55:54;;;;;;;53.05;17.27;;;;;;;;;;5053500;28;20478;-80
2022/01/25 10:58:23;;;;;;;49.72;15.60;;;;;;;;;;5044575;28;20043;-80
2022/01/25 11:00:51;;;;;;;51.17;15.15;;;;;;;;;;5052418;28;20581;-80
2022/01/25 11:03:39;;;;;;;51.00;15.38;;;;;;;;;;5052073;28;20044;-80
2022/01/25 11:06:18;;;;;;;53.33;16.33;;;;;;;;;;5070092;28;20048;-80
2022/01/25 11:08:49;;;;;;;51.03;14.20;;;;;;;;;;5057888;28;20106;-80
2022/01/25 11:11:26;;;;;;;52.30;15.07;;;;;;;;;;5052310;28;20033;-79
2022/01/25 11:13:54;;;;;;;53.35;16.13;;;;;;;;;;5046369;28;20044;-80
2022/01/25 11:16:23;;;;;;;56.00;16.35;;;;;;;;;;5049709;28;20048;-80
2022/01/25 11:18:58;;;;;;;51.30;16.45;;;;;;;;;;5046804;28;20036;-80
2022/01/25 11:21:25;;;;;;;47.05;15.50;;;;;;;;;;5047558;28;20052;-80
2022/01/25 11:23:53;;;;;;;49.00;15.15;;;;;;;;;;5049457;28;20573;-80
2022/01/25 11:26:21;;;;;;;59.17;17.33;;;;;;;;;;5044951;28;20091;-80
2022/01/25 11:28:49;;;;;;;50.42;15.55;;;;;;;;;;5049329;28;20053;-80
2022/01/25 11:31:21;;;;;;;51.80;16.67;;;;;;;;;;5038504;28;20123;-80
2022/01/25 11:33:51;;;;;;;50.13;15.77;;;;;;;;;;5049040;28;20059;-79
2022/01/25 11:36:20;;;;;;;51.55;15.35;;;;;;;;;;5046668;28;20411;-80
2022/01/25 11:38:51;;;;;;;48.08;14.68;;;;;;;;;;5045150;28;20144;-80
2022/01/25 11:41:23;;;;;;;51.40;14.93;;;;;;;;;;5043208;28;20036;-80
2022/01/25 11:44:09;;;;;;;48.75;14.95;;;;;;;;;;5046454;28;20756;-80
2022/01/25 11:46:39;;;;;;;53.88;14.77;;;;;;;;;;5048524;28;21008;-80
2022/01/25 11:49:19;;;;;;;52.53;15.50;;;;;;;;;;5045617;28;20507;-80
2022/01/25 11:52:07;;;;;;;43.33;14.18;;;;;;;;;;5044369;28;20122;-80
2022/01/25 11:54:36;;;;;;;48.10;15.82;;;;;;;;;;5045426;28;20471;-79
2022/01/25 11:57:14;;;;;;;51.45;16.20;;;;;;;;;;5043569;28;20037;-79
2022/01/25 11:59:50;;;;;;;49.47;16.13;;;;;;;;;;5043043;28;20086;-79
2022/01/25 12:02:54;;;;;;;44.92;13.48;;;;;;;;;;5046340;28;20037;-80
2022/01/25 12:05:26;;;;;;;45.92;12.98;;;;;;;;;;4979511;28;20902;-79
2022/01/25 12:08:16;;;;;;;45.45;12.25;;;;;;;;;;4979993;28;20140;-79
2022/01/25 12:10:46;;;;;;;46.60;13.85;;;;;;;;;;4975346;28;20485;-79
2022/01/25 12:13:20;;;;;;;35.70;12.80;;;;;;;;;;4971125;28;20050;-80
2022/01/25 12:16:20;;;;;;;48.38;14.18;;;;;;;;;;4972855;28;20061;-81
2022/01/25 12:18:53;;;;;;;43.20;13.88;;;;;;;;;;4968364;28;20512;-81
2022/01/25 12:21:46;;;;;;;53.47;14.43;;;;;;;;;;4983296;28;20042;-82
2022/01/25 12:24:17;;;;;;;40.28;12.27;;;;;;;;;;4983895;28;20150;-82
2022/01/25 12:27:02;;;;;;;49.72;14.30;;;;;;;;;;4983167;28;20054;-81
2022/01/25 12:29:40;;;;;;;41.00;13.07;;;;;;;;;;4986014;28;20058;-81
2022/01/25 12:32:23;;;;;;;46.58;13.70;;;;;;;;;;4973165;28;20109;-82
2022/01/25 12:34:58;;;;;;;43.45;13.30;;;;;;;;;;4986089;28;20065;-81
2022/01/25 12:37:45;;;;;;;45.00;12.40;;;;;;;;;;4988775;28;20574;-82
2022/01/25 12:40:25;;;;;;;37.78;12.55;;;;;;;;;;5032437;28;20509;-81
2022/01/25 12:42:54;;;;;;;40.50;13.52;;;;;;;;;;5047428;28;20127;-82
2022/01/25 12:45:31;;;;;;;45.60;13.10;;;;;;;;;;5048372;28;20033;-82
2022/01/25 12:48:02;;;;;;;40.20;12.07;;;;;;;;;;5034045;28;20045;-82
2022/01/25 12:50:35;;;;;;;41.47;12.57;;;;;;;;;;5048629;28;20105;-81
2022/01/25 12:53:06;;;;;;;38.60;11.88;;;;;;;;;;5052405;28;20119;-81
2022/01/25 12:55:39;;;;;;;36.50;11.43;;;;;;;;;;5053962;28;20049;-81
2022/01/25 12:58:07;;;;;;;37.53;11.52;;;;;;;;;;5049437;28;20107;-81
2022/01/25 13:00:46;;;;;;;39.58;11.25;;;;;;;;;;5049483;28;20044;-82
2022/01/25 13:03:29;;;;;;;35.08;11.18;;;;;;;;;;5047269;28;20040;-81
2022/01/25 13:06:10;;;;;;;33.22;11.90;;;;;;;;;;5048750;28;20524;-80
2022/01/25 13:08:49;;;;;;;36.30;11.57;;;;;;;;;;5052413;28;20106;-81
2022/01/25 13:11:26;;;;;;;39.00;11.45;;;;;;;;;;5051564;28;20032;-81
2022/01/25 13:14:04;;;;;;;39.00;12.68;;;;;;;;;;5051170;28;20044;-80
2022/01/25 13:16:37;;;;;;;35.83;10.88;;;;;;;;;;5032569;28;20064;-81
2022/01/25 13:19:06;;;;;;;35.22;11.73;;;;;;;;;;5031783;28;20044;-80
2022/01/25 13:21:38;;;;;;;34.78;11.70;;;;;;;;;;5048742;28;20036;-81
2022/01/25 13:24:29;;;;;;;36.65;11.00;;;;;;;;;;5032548;28;20986;-82
2022/01/25 13:27:04;;;;;;;41.85;10.82;;;;;;;;;;5046856;28;20106;-82
2022/01/25 13:32:30;;;;;;;37.15;11.23;;;;;;;;;;5049092;28;20047;-82
2022/01/25 13:35:18;;;;;;;36.13;12.32;;;;;;;;;;5049841;28;20059;-82
2022/01/25 13:38:02;;;;;;;34.13;11.70;;;;;;;;;;5035426;28;20542;-82
2022/01/25 13:40:44;;;;;;;36.53;12.15;;;;;;;;;;5050663;28;20044;-82
2022/01/25 13:45:42;;;;;;;34.88;12.13;;;;;;;;;;5052959;28;20046;-82
2022/01/25 13:46:18;;;;;;;35.22;11.52;;;;;;;;;;5049577;28;20099;-82
2022/01/25 13:48:47;;;;;;;41.33;11.90;;;;;;;;;;5052044;28;20056;-82
2022/01/25 13:51:18;;;;;;;36.72;11.65;;;;;;;;;;5051640;28;20186;-82
2022/01/25 13:53:59;;;;;;;36.88;11.80;;;;;;;;;;5051408;28;20048;-81
2022/01/25 13:56:31;;;;;;;34.83;11.60;;;;;;;;;;5051141;28;20083;-80
2022/01/25 13:59:00;;;;;;;33.22;10.32;;;;;;;;;;5049090;28;20224;-81
2022/01/25 14:01:31;;;;;;;33.20;10.57;;;;;;;;;;5051457;28;20209;-81
2022/01/25 14:04:29;;;;;;;36.03;10.57;;;;;;;;;;5048101;28;20041;-79
2022/01/25 14:07:00;;;;;;;31.13;11.25;;;;;;;;;;4947727;28;20146;-79
2022/01/25 14:09:33;;;;;;;27.15;9.15;;;;;;;;;;4946327;28;20226;-79
2022/01/25 14:23:25;;;;;;;28.92;9.18;;;;;;;;;;4949211;28;20047;-79
2022/01/25 14:26:17;;;;;;;29.92;8.75;;;;;;;;;;4952281;28;20066;-79
2022/01/25 14:29:05;;;;;;;30.75;9.82;;;;;;;;;;4948030;28;21410;-79
2022/01/25 14:31:42;;;;;;;20.60;8.27;;;;;;;;;;4944615;28;20051;-79
2022/01/25 14:34:11;;;;;;;24.02;8.40;;;;;;;;;;4949040;28;21315;-79
2022/01/25 14:36:42;;;;;;;24.38;8.70;;;;;;;;;;4948439;28;20058;-79
2022/01/25 14:39:11;;;;;;;24.98;9.15;;;;;;;;;;4946513;28;20046;-80
2022/01/25 14:41:39;;;;;;;26.67;8.73;;;;;;;;;;4949762;28;20051;-79
2022/01/25 14:44:13;;;;;;;25.27;8.02;;;;;;;;;;5025009;28;20090;-79
2022/01/25 14:46:46;;;;;;;22.88;8.45;;;;;;;;;;5048034;28;20059;-79
2022/01/25 14:49:22;;;;;;;27.35;8.70;;;;;;;;;;5043886;28;20076;-79
2022/01/25 14:51:59;;;;;;;21.67;8.30;;;;;;;;;;5044833;28;20503;-79
2022/01/25 14:54:30;;;;;;;27.88;9.18;;;;;;;;;;5045816;28;20044;-79
2022/01/25 14:57:02;;;;;;;27.55;8.73;;;;;;;;;;5050620;28;20045;-79
2022/01/25 14:59:33;;;;;;;25.05;8.60;;;;;;;;;;5045311;28;20047;-79
2022/01/25 15:02:07;;;;;;;19.85;7.68;;;;;;;;;;5045188;28;21292;-79
2022/01/25 15:04:44;;;;;;;22.40;8.18;;;;;;;;;;5047480;28;20044;-80
2022/01/25 15:07:17;;;;;;;19.85;7.28;;;;;;;;;;5044704;28;20050;-79
2022/01/25 15:09:50;;;;;;;24.85;7.88;;;;;;;;;;5046700;28;20145;-79
2022/01/25 15:12:19;;;;;;;28.75;8.82;;;;;;;;;;5045098;28;20049;-79
2022/01/25 15:14:54;;;;;;;28.52;8.90;;;;;;;;;;5045494;28;20041;-79
2022/01/25 15:17:21;;;;;;;21.13;7.93;;;;;;;;;;5046362;28;20063;-79
2022/01/25 15:19:49;;;;;;;23.33;8.43;;;;;;;;;;5047552;28;20032;-79
2022/01/25 15:22:19;;;;;;;23.13;8.02;;;;;;;;;;5046148;28;20037;-79
2022/01/25 15:24:49;;;;;;;25.85;10.18;;;;;;;;;;5048469;28;20044;-79
2022/01/25 15:27:21;;;;;;;22.70;8.60;;;;;;;;;;5029455;28;20044;-79
2022/01/25 15:29:49;;;;;;;25.88;7.97;;;;;;;;;;5047482;28;20036;-79
2022/01/25 15:32:17;;;;;;;24.77;8.38;;;;;;;;;;5030360;28;20071;-79
2022/01/25 15:34:45;;;;;;;24.40;8.05;;;;;;;;;;5047520;28;20050;-79
2022/01/25 15:37:14;;;;;;;25.10;8.15;;;;;;;;;;5043985;28;20064;-79
2022/01/25 15:39:42;;;;;;;25.92;9.02;;;;;;;;;;5046368;28;20385;-79
2022/01/25 15:42:09;;;;;;;23.25;7.85;;;;;;;;;;5046872;28;20132;-79
2022/01/25 15:44:42;;;;;;;23.50;7.53;;;;;;;;;;5042186;28;20048;-79
2022/01/25 15:47:10;;;;;;;27.65;8.93;;;;;;;;;;5046160;28;20920;-79
2022/01/25 15:49:40;;;;;;;20.73;7.60;;;;;;;;;;5043915;28;20136;-79
2022/01/25 15:52:09;;;;;;;23.52;7.53;;;;;;;;;;5045445;28;20127;-79
2022/01/25 15:54:37;;;;;;;22.83;8.30;;;;;;;;;;5042112;28;20709;-79
2022/01/25 15:57:06;;;;;;;21.98;8.02;;;;;;;;;;5045619;28;20117;-80
2022/01/25 15:59:34;;;;;;;24.30;7.95;;;;;;;;;;5050286;28;20055;-81
2022/01/25 16:02:11;;;;;;;28.45;8.45;;;;;;;;;;5045580;28;20037;-81
2022/01/25 16:04:44;;;;;;;20.95;7.15;;;;;;;;;;5045722;28;20049;-82
2022/01/25 16:07:19;;;;;;;25.13;7.70;;;;;;;;;;5049904;28;20056;-87
2022/01/25 16:09:53;;;;;;;21.92;8.05;;;;;;;;;;5048381;28;20099;-85
2022/01/25 16:12:22;;;;;;;22.55;7.88;;;;;;;;;;5050824;28;20029;-85
2022/01/25 16:14:51;;;;;;;34.78;8.95;;;;;;;;;;5050719;28;20136;-85
2022/01/25 16:17:19;;;;;;;26.13;7.50;;;;;;;;;;5048363;28;20124;-84
2022/01/25 16:19:47;;;;;;;27.83;8.32;;;;;;;;;;5034360;28;20052;-85
2022/01/25 16:22:15;;;;;;;22.95;7.80;;;;;;;;;;5050528;28;20040;-84
2022/01/25 16:24:43;;;;;;;24.85;7.90;;;;;;;;;;5045725;28;20130;-84
2022/01/25 16:27:11;;;;;;;24.42;8.30;;;;;;;;;;5047301;28;20057;-84
2022/01/25 16:29:39;;;;;;;23.30;7.47;;;;;;;;;;5048741;28;20375;-85
2022/01/25 16:32:07;;;;;;;27.80;8.10;;;;;;;;;;5030870;28;20324;-84
2022/01/25 16:34:37;;;;;;;23.65;7.28;;;;;;;;;;5031489;28;20090;-84
2022/01/25 16:37:05;;;;;;;23.92;7.15;;;;;;;;;;5047213;28;20128;-84
2022/01/25 16:39:33;;;;;;;26.08;7.32;;;;;;;;;;5047992;28;20040;-84
2022/01/25 16:42:01;;;;;;;24.17;7.57;;;;;;;;;;5034769;28;20063;-83
2022/01/25 16:44:51;;;;;;;20.27;6.40;;;;;;;;;;5052510;28;20135;-84
2022/01/25 16:47:19;;;;;;;25.42;7.68;;;;;;;;;;5052296;28;20037;-82
2022/01/25 16:49:47;;;;;;;23.50;7.40;;;;;;;;;;5034702;28;20048;-84
2022/01/25 16:52:15;;;;;;;21.45;7.43;;;;;;;;;;5060825;28;20043;-82